Terminal Aerodrome Forecast
Issued by NWS

Home | Current Version | Previous Version | Text Only | Print | Product List | Glossary On
Versions: 1 2 3 4 5 6 7 8 9 10 11 12 13 14
000
FTUS45 KFGZ 271100
TAFSEZ
TAF
KSEZ 271120Z 2712/2812 VRB05KT P6SM VCSH BKN040 BKN070
      TEMPO 2712/2715 4SM TSRA OVC030CB
     FM271700 24009KT P6SM SCT060 SCT100
     FM280300 05007KT P6SM SCT100=

USA.gov is the U.S. government's official web portal to all federal, state and local government web resources and services.